sensor_id;sensor_type;location;lat;lon;timestamp;temperature;humidity
8824;DHT22;4448;50.904;4.694;2023-06-22T00:00:55;22.90;99.90
8824;DHT22;4448;50.904;4.694;2023-06-22T00:03:23;22.90;99.90
8824;DHT22;4448;50.904;4.694;2023-06-22T00:05:49;22.80;99.90
8824;DHT22;4448;50.904;4.694;2023-06-22T00:08:16;22.90;99.90
8824;DHT22;4448;50.904;4.694;2023-06-22T00:10:42;22.80;99.90
8824;DHT22;4448;50.904;4.694;2023-06-22T00:13:08;22.90;99.90
8824;DHT22;4448;50.904;4.694;2023-06-22T00:15:35;22.90;99.90
8824;DHT22;4448;50.904;4.694;2023-06-22T00:18:01;22.90;99.90
8824;DHT22;4448;50.904;4.694;2023-06-22T00:20:27;22.80;99.90
8824;DHT22;4448;50.904;4.694;2023-06-22T00:22:57;22.80;99.90
8824;DHT22;4448;50.904;4.694;2023-06-22T00:25:23;22.70;99.90
8824;DHT22;4448;50.904;4.694;2023-06-22T00:27:49;22.70;99.90
8824;DHT22;4448;50.904;4.694;2023-06-22T00:30:19;22.70;99.90
8824;DHT22;4448;50.904;4.694;2023-06-22T00:32:45;22.60;99.90
8824;DHT22;4448;50.904;4.694;2023-06-22T00:35:14;22.60;99.90
8824;DHT22;4448;50.904;4.694;2023-06-22T00:37:40;22.60;99.90
8824;DHT22;4448;50.904;4.694;2023-06-22T00:40:08;22.60;99.90
8824;DHT22;4448;50.904;4.694;2023-06-22T00:42:37;22.60;99.90
8824;DHT22;4448;50.904;4.694;2023-06-22T00:45:03;22.60;99.90
8824;DHT22;4448;50.904;4.694;2023-06-22T00:47:29;22.60;99.90
8824;DHT22;4448;50.904;4.694;2023-06-22T00:49:55;22.60;99.90
8824;DHT22;4448;50.904;4.694;2023-06-22T00:52:22;22.60;99.90
8824;DHT22;4448;50.904;4.694;2023-06-22T00:54:52;22.60;99.90
8824;DHT22;4448;50.904;4.694;2023-06-22T00:57:19;22.60;99.90
8824;DHT22;4448;50.904;4.694;2023-06-22T00:59:46;22.60;99.90
8824;DHT22;4448;50.904;4.694;2023-06-22T01:02:13;22.60;99.90
8824;DHT22;4448;50.904;4.694;2023-06-22T01:04:39;22.60;99.90
8824;DHT22;4448;50.904;4.694;2023-06-22T01:09:34;22.60;99.90
8824;DHT22;4448;50.904;4.694;2023-06-22T01:12:04;22.60;99.90
8824;DHT22;4448;50.904;4.694;2023-06-22T01:17:03;22.50;99.90
8824;DHT22;4448;50.904;4.694;2023-06-22T01:19:51;22.50;99.90
8824;DHT22;4448;50.904;4.694;2023-06-22T01:22:23;22.60;99.90
8824;DHT22;4448;50.904;4.694;2023-06-22T01:25:10;22.60;99.90
8824;DHT22;4448;50.904;4.694;2023-06-22T01:27:56;22.50;99.90
8824;DHT22;4448;50.904;4.694;2023-06-22T01:30:27;22.50;99.90
8824;DHT22;4448;50.904;4.694;2023-06-22T01:32:57;22.50;99.90
8824;DHT22;4448;50.904;4.694;2023-06-22T01:35:24;22.50;99.90
8824;DHT22;4448;50.904;4.694;2023-06-22T01:37:50;22.40;99.90
8824;DHT22;4448;50.904;4.694;2023-06-22T01:40:16;22.50;99.90
8824;DHT22;4448;50.904;4.694;2023-06-22T01:42:43;22.50;99.90
8824;DHT22;4448;50.904;4.694;2023-06-22T01:45:10;22.50;99.90
8824;DHT22;4448;50.904;4.694;2023-06-22T01:47:36;22.50;99.90
8824;DHT22;4448;50.904;4.694;2023-06-22T01:50:03;22.40;99.90
8824;DHT22;4448;50.904;4.694;2023-06-22T01:52:29;22.30;99.90
8824;DHT22;4448;50.904;4.694;2023-06-22T01:54:54;22.30;99.90
8824;DHT22;4448;50.904;4.694;2023-06-22T01:57:20;22.30;99.90
8824;DHT22;4448;50.904;4.694;2023-06-22T01:59:55;22.30;99.90
8824;DHT22;4448;50.904;4.694;2023-06-22T02:02:27;22.20;99.90
8824;DHT22;4448;50.904;4.694;2023-06-22T02:05:16;22.30;99.90
8824;DHT22;4448;50.904;4.694;2023-06-22T02:07:49;22.20;99.90
8824;DHT22;4448;50.904;4.694;2023-06-22T02:10:19;22.20;99.90
8824;DHT22;4448;50.904;4.694;2023-06-22T02:12:46;22.20;99.90
8824;DHT22;4448;50.904;4.694;2023-06-22T02:15:13;22.20;99.90
8824;DHT22;4448;50.904;4.694;2023-06-22T02:17:40;22.20;99.90
8824;DHT22;4448;50.904;4.694;2023-06-22T02:20:12;22.10;99.90
8824;DHT22;4448;50.904;4.694;2023-06-22T02:22:38;22.10;99.90
8824;DHT22;4448;50.904;4.694;2023-06-22T02:25:04;22.10;99.90
8824;DHT22;4448;50.904;4.694;2023-06-22T02:27:30;22.10;99.90
8824;DHT22;4448;50.904;4.694;2023-06-22T02:29:57;22.00;99.90
8824;DHT22;4448;50.904;4.694;2023-06-22T02:32:22;22.00;99.90
8824;DHT22;4448;50.904;4.694;2023-06-22T02:34:48;22.00;99.90
8824;DHT22;4448;50.904;4.694;2023-06-22T02:37:14;22.00;99.90
8824;DHT22;4448;50.904;4.694;2023-06-22T02:39:40;22.00;99.90
8824;DHT22;4448;50.904;4.694;2023-06-22T02:42:06;22.00;99.90
8824;DHT22;4448;50.904;4.694;2023-06-22T02:44:32;22.00;99.90
8824;DHT22;4448;50.904;4.694;2023-06-22T02:46:58;22.00;99.90
8824;DHT22;4448;50.904;4.694;2023-06-22T02:49:25;21.90;99.90
8824;DHT22;4448;50.904;4.694;2023-06-22T02:51:50;22.00;99.90
8824;DHT22;4448;50.904;4.694;2023-06-22T02:54:16;21.90;99.90
8824;DHT22;4448;50.904;4.694;2023-06-22T02:56:42;21.90;99.90
8824;DHT22;4448;50.904;4.694;2023-06-22T02:59:11;21.90;99.90
8824;DHT22;4448;50.904;4.694;2023-06-22T03:01:37;21.90;99.90
8824;DHT22;4448;50.904;4.694;2023-06-22T03:04:08;21.90;99.90
8824;DHT22;4448;50.904;4.694;2023-06-22T03:06:35;21.90;99.90
8824;DHT22;4448;50.904;4.694;2023-06-22T03:09:03;21.80;99.90
8824;DHT22;4448;50.904;4.694;2023-06-22T03:11:33;21.80;99.90
8824;DHT22;4448;50.904;4.694;2023-06-22T03:14:00;21.80;99.90
8824;DHT22;4448;50.904;4.694;2023-06-22T03:16:27;21.80;99.90
8824;DHT22;4448;50.904;4.694;2023-06-22T03:18:53;21.80;99.90
8824;DHT22;4448;50.904;4.694;2023-06-22T03:21:21;21.80;99.90
8824;DHT22;4448;50.904;4.694;2023-06-22T03:23:47;21.80;99.90
8824;DHT22;4448;50.904;4.694;2023-06-22T03:26:12;21.70;99.90
8824;DHT22;4448;50.904;4.694;2023-06-22T03:28:38;21.80;99.90
8824;DHT22;4448;50.904;4.694;2023-06-22T03:31:04;21.70;99.90
8824;DHT22;4448;50.904;4.694;2023-06-22T03:33:32;21.80;99.90
8824;DHT22;4448;50.904;4.694;2023-06-22T03:35:57;21.80;99.90
8824;DHT22;4448;50.904;4.694;2023-06-22T03:38:23;21.80;99.90
8824;DHT22;4448;50.904;4.694;2023-06-22T03:40:49;21.70;99.90
8824;DHT22;4448;50.904;4.694;2023-06-22T03:43:14;21.80;99.90
8824;DHT22;4448;50.904;4.694;2023-06-22T03:45:40;21.80;99.90
8824;DHT22;4448;50.904;4.694;2023-06-22T03:48:06;21.70;99.90
8824;DHT22;4448;50.904;4.694;2023-06-22T03:50:31;21.80;99.90
8824;DHT22;4448;50.904;4.694;2023-06-22T03:52:57;21.80;99.90
8824;DHT22;4448;50.904;4.694;2023-06-22T03:55:23;21.70;99.90
8824;DHT22;4448;50.904;4.694;2023-06-22T03:57:48;21.80;99.90
8824;DHT22;4448;50.904;4.694;2023-06-22T04:00:14;21.80;99.90
8824;DHT22;4448;50.904;4.694;2023-06-22T04:02:43;21.80;99.90
8824;DHT22;4448;50.904;4.694;2023-06-22T04:05:09;22.30;99.90
8824;DHT22;4448;50.904;4.694;2023-06-22T04:07:35;21.80;99.90
8824;DHT22;4448;50.904;4.694;2023-06-22T04:10:03;21.90;99.90
8824;DHT22;4448;50.904;4.694;2023-06-22T04:12:29;21.80;99.90
8824;DHT22;4448;50.904;4.694;2023-06-22T04:14:55;21.90;99.90
8824;DHT22;4448;50.904;4.694;2023-06-22T04:17:20;21.80;99.90
8824;DHT22;4448;50.904;4.694;2023-06-22T04:19:46;21.90;99.90
8824;DHT22;4448;50.904;4.694;2023-06-22T04:22:12;21.80;99.90
8824;DHT22;4448;50.904;4.694;2023-06-22T04:24:39;21.80;99.90
8824;DHT22;4448;50.904;4.694;2023-06-22T04:27:05;21.80;99.90
8824;DHT22;4448;50.904;4.694;2023-06-22T04:29:31;21.70;99.90
8824;DHT22;4448;50.904;4.694;2023-06-22T04:31:57;21.80;99.90
8824;DHT22;4448;50.904;4.694;2023-06-22T04:34:24;21.80;99.90
8824;DHT22;4448;50.904;4.694;2023-06-22T04:36:53;21.80;99.90
8824;DHT22;4448;50.904;4.694;2023-06-22T04:39:19;21.80;99.90
8824;DHT22;4448;50.904;4.694;2023-06-22T04:41:45;21.80;99.90
8824;DHT22;4448;50.904;4.694;2023-06-22T04:44:12;21.80;99.90
8824;DHT22;4448;50.904;4.694;2023-06-22T04:46:38;21.70;99.90
8824;DHT22;4448;50.904;4.694;2023-06-22T04:49:08;21.70;99.90
8824;DHT22;4448;50.904;4.694;2023-06-22T04:51:41;21.70;99.90
8824;DHT22;4448;50.904;4.694;2023-06-22T04:54:08;21.70;99.90
8824;DHT22;4448;50.904;4.694;2023-06-22T04:56:34;21.70;99.90
8824;DHT22;4448;50.904;4.694;2023-06-22T04:59:00;21.70;99.90
8824;DHT22;4448;50.904;4.694;2023-06-22T05:01:26;21.80;99.90
8824;DHT22;4448;50.904;4.694;2023-06-22T05:03:52;21.90;99.90
8824;DHT22;4448;50.904;4.694;2023-06-22T05:06:22;21.70;99.90
8824;DHT22;4448;50.904;4.694;2023-06-22T05:08:54;21.80;99.90
8824;DHT22;4448;50.904;4.694;2023-06-22T05:11:27;21.70;99.90
8824;DHT22;4448;50.904;4.694;2023-06-22T05:13:52;21.80;99.90
8824;DHT22;4448;50.904;4.694;2023-06-22T05:16:18;21.70;99.90
8824;DHT22;4448;50.904;4.694;2023-06-22T05:18:52;21.70;99.90
8824;DHT22;4448;50.904;4.694;2023-06-22T05:21:22;21.90;99.90
8824;DHT22;4448;50.904;4.694;2023-06-22T05:23:48;21.80;99.90
8824;DHT22;4448;50.904;4.694;2023-06-22T05:26:14;21.80;99.90
8824;DHT22;4448;50.904;4.694;2023-06-22T05:28:39;21.80;99.90
8824;DHT22;4448;50.904;4.694;2023-06-22T05:31:05;21.80;99.90
8824;DHT22;4448;50.904;4.694;2023-06-22T05:33:31;21.90;99.90
8824;DHT22;4448;50.904;4.694;2023-06-22T05:35:56;21.80;99.90
8824;DHT22;4448;50.904;4.694;2023-06-22T05:38:22;21.80;99.90
8824;DHT22;4448;50.904;4.694;2023-06-22T05:40:47;21.80;99.90
8824;DHT22;4448;50.904;4.694;2023-06-22T05:43:13;22.30;99.90
8824;DHT22;4448;50.904;4.694;2023-06-22T05:45:39;21.70;99.90
8824;DHT22;4448;50.904;4.694;2023-06-22T05:48:05;22.10;99.90
8824;DHT22;4448;50.904;4.694;2023-06-22T05:50:30;21.80;99.90
8824;DHT22;4448;50.904;4.694;2023-06-22T05:52:56;21.90;99.90
8824;DHT22;4448;50.904;4.694;2023-06-22T05:55:22;21.80;99.90
8824;DHT22;4448;50.904;4.694;2023-06-22T05:57:47;21.80;99.90
8824;DHT22;4448;50.904;4.694;2023-06-22T06:00:13;21.80;99.90
8824;DHT22;4448;50.904;4.694;2023-06-22T06:02:40;21.80;99.90
8824;DHT22;4448;50.904;4.694;2023-06-22T06:05:12;21.80;99.90
8824;DHT22;4448;50.904;4.694;2023-06-22T06:07:45;21.80;99.90
8824;DHT22;4448;50.904;4.694;2023-06-22T06:10:11;21.90;99.90
8824;DHT22;4448;50.904;4.694;2023-06-22T06:12:36;21.90;99.90
8824;DHT22;4448;50.904;4.694;2023-06-22T06:15:03;21.90;99.90
8824;DHT22;4448;50.904;4.694;2023-06-22T06:17:28;21.90;99.90
8824;DHT22;4448;50.904;4.694;2023-06-22T06:19:54;21.90;99.90
8824;DHT22;4448;50.904;4.694;2023-06-22T06:22:19;21.90;99.90
8824;DHT22;4448;50.904;4.694;2023-06-22T06:24:47;22.00;99.90
8824;DHT22;4448;50.904;4.694;2023-06-22T06:27:13;22.00;99.90
8824;DHT22;4448;50.904;4.694;2023-06-22T06:29:39;22.00;99.90
8824;DHT22;4448;50.904;4.694;2023-06-22T06:32:05;22.00;99.90
8824;DHT22;4448;50.904;4.694;2023-06-22T06:34:30;22.00;99.90
8824;DHT22;4448;50.904;4.694;2023-06-22T06:36:56;22.00;99.90
8824;DHT22;4448;50.904;4.694;2023-06-22T06:39:22;22.00;99.90
8824;DHT22;4448;50.904;4.694;2023-06-22T06:41:47;22.10;99.90
8824;DHT22;4448;50.904;4.694;2023-06-22T06:44:13;22.20;99.90
8824;DHT22;4448;50.904;4.694;2023-06-22T06:46:39;22.20;99.90
8824;DHT22;4448;50.904;4.694;2023-06-22T06:49:05;22.20;99.90
8824;DHT22;4448;50.904;4.694;2023-06-22T06:51:30;22.20;99.90
8824;DHT22;4448;50.904;4.694;2023-06-22T06:53:56;22.20;99.90
8824;DHT22;4448;50.904;4.694;2023-06-22T06:56:22;22.30;99.90
8824;DHT22;4448;50.904;4.694;2023-06-22T06:58:50;22.30;99.90
8824;DHT22;4448;50.904;4.694;2023-06-22T07:01:15;22.30;99.90
8824;DHT22;4448;50.904;4.694;2023-06-22T07:03:41;22.30;99.90
8824;DHT22;4448;50.904;4.694;2023-06-22T07:06:07;22.40;99.90
8824;DHT22;4448;50.904;4.694;2023-06-22T07:08:33;22.30;99.90
8824;DHT22;4448;50.904;4.694;2023-06-22T07:11:00;22.40;99.90
8824;DHT22;4448;50.904;4.694;2023-06-22T07:13:26;22.30;99.90
8824;DHT22;4448;50.904;4.694;2023-06-22T07:15:52;22.30;99.90
8824;DHT22;4448;50.904;4.694;2023-06-22T07:18:17;22.30;99.90
8824;DHT22;4448;50.904;4.694;2023-06-22T07:20:43;22.30;99.90
8824;DHT22;4448;50.904;4.694;2023-06-22T07:23:08;22.30;99.90
8824;DHT22;4448;50.904;4.694;2023-06-22T07:25:34;22.30;99.90
8824;DHT22;4448;50.904;4.694;2023-06-22T07:28:04;22.30;99.90
8824;DHT22;4448;50.904;4.694;2023-06-22T07:30:31;22.30;99.90
8824;DHT22;4448;50.904;4.694;2023-06-22T07:32:58;22.30;99.90
8824;DHT22;4448;50.904;4.694;2023-06-22T07:35:24;22.30;99.90
8824;DHT22;4448;50.904;4.694;2023-06-22T07:37:50;22.30;99.90
8824;DHT22;4448;50.904;4.694;2023-06-22T07:40:16;22.40;99.90
8824;DHT22;4448;50.904;4.694;2023-06-22T07:42:41;22.40;99.90
8824;DHT22;4448;50.904;4.694;2023-06-22T07:45:08;22.40;99.90
8824;DHT22;4448;50.904;4.694;2023-06-22T07:47:34;22.40;99.90
8824;DHT22;4448;50.904;4.694;2023-06-22T07:50:01;22.40;99.90
8824;DHT22;4448;50.904;4.694;2023-06-22T07:52:30;21.90;99.90
8824;DHT22;4448;50.904;4.694;2023-06-22T07:54:56;22.40;99.90
8824;DHT22;4448;50.904;4.694;2023-06-22T07:57:22;22.40;99.90
8824;DHT22;4448;50.904;4.694;2023-06-22T07:59:47;22.40;99.90
8824;DHT22;4448;50.904;4.694;2023-06-22T08:02:13;22.40;99.90
8824;DHT22;4448;50.904;4.694;2023-06-22T08:04:39;22.40;99.90
8824;DHT22;4448;50.904;4.694;2023-06-22T08:07:05;22.40;99.90
8824;DHT22;4448;50.904;4.694;2023-06-22T08:09:32;22.30;99.90
8824;DHT22;4448;50.904;4.694;2023-06-22T08:11:59;22.40;99.90
8824;DHT22;4448;50.904;4.694;2023-06-22T08:14:26;22.20;99.90
8824;DHT22;4448;50.904;4.694;2023-06-22T08:16:52;22.40;99.90
8824;DHT22;4448;50.904;4.694;2023-06-22T08:19:17;22.30;99.90
8824;DHT22;4448;50.904;4.694;2023-06-22T08:21:43;22.30;99.90
8824;DHT22;4448;50.904;4.694;2023-06-22T08:24:09;22.30;99.90
8824;DHT22;4448;50.904;4.694;2023-06-22T08:26:35;22.30;99.90
8824;DHT22;4448;50.904;4.694;2023-06-22T08:29:03;22.40;99.90
8824;DHT22;4448;50.904;4.694;2023-06-22T08:31:31;22.30;99.90
8824;DHT22;4448;50.904;4.694;2023-06-22T08:33:58;22.30;99.90
8824;DHT22;4448;50.904;4.694;2023-06-22T08:36:24;22.40;99.90
8824;DHT22;4448;50.904;4.694;2023-06-22T08:38:50;22.30;99.90
8824;DHT22;4448;50.904;4.694;2023-06-22T08:41:19;22.30;99.90
8824;DHT22;4448;50.904;4.694;2023-06-22T08:43:45;22.30;99.90
8824;DHT22;4448;50.904;4.694;2023-06-22T08:46:11;22.30;99.90
8824;DHT22;4448;50.904;4.694;2023-06-22T08:48:37;22.30;99.90
8824;DHT22;4448;50.904;4.694;2023-06-22T08:51:04;22.30;99.90
8824;DHT22;4448;50.904;4.694;2023-06-22T08:53:30;22.40;99.90
8824;DHT22;4448;50.904;4.694;2023-06-22T08:55:56;22.40;99.90
8824;DHT22;4448;50.904;4.694;2023-06-22T08:58:21;22.40;99.90
8824;DHT22;4448;50.904;4.694;2023-06-22T09:00:48;22.30;99.90
8824;DHT22;4448;50.904;4.694;2023-06-22T09:03:13;22.30;99.90
8824;DHT22;4448;50.904;4.694;2023-06-22T09:05:39;22.30;99.90
8824;DHT22;4448;50.904;4.694;2023-06-22T09:08:05;22.00;99.90
8824;DHT22;4448;50.904;4.694;2023-06-22T09:10:30;22.40;99.90
8824;DHT22;4448;50.904;4.694;2023-06-22T09:12:57;22.30;99.90
8824;DHT22;4448;50.904;4.694;2023-06-22T09:15:23;22.40;99.90
8824;DHT22;4448;50.904;4.694;2023-06-22T09:17:49;22.30;99.90
8824;DHT22;4448;50.904;4.694;2023-06-22T09:20:15;22.40;99.90
8824;DHT22;4448;50.904;4.694;2023-06-22T09:22:41;22.30;99.90
8824;DHT22;4448;50.904;4.694;2023-06-22T09:25:07;22.30;99.90
8824;DHT22;4448;50.904;4.694;2023-06-22T09:27:33;22.30;99.90
8824;DHT22;4448;50.904;4.694;2023-06-22T09:29:58;22.30;99.90
8824;DHT22;4448;50.904;4.694;2023-06-22T09:32:25;22.40;99.90
8824;DHT22;4448;50.904;4.694;2023-06-22T09:34:51;22.40;99.90
8824;DHT22;4448;50.904;4.694;2023-06-22T09:37:17;22.30;99.90
8824;DHT22;4448;50.904;4.694;2023-06-22T09:39:42;22.30;99.90
8824;DHT22;4448;50.904;4.694;2023-06-22T09:42:08;22.30;99.90
8824;DHT22;4448;50.904;4.694;2023-06-22T09:44:34;22.30;99.90
8824;DHT22;4448;50.904;4.694;2023-06-22T09:47:00;22.20;99.90
8824;DHT22;4448;50.904;4.694;2023-06-22T09:49:26;22.30;99.90
8824;DHT22;4448;50.904;4.694;2023-06-22T09:51:51;22.20;99.90
8824;DHT22;4448;50.904;4.694;2023-06-22T09:54:18;22.20;99.90
8824;DHT22;4448;50.904;4.694;2023-06-22T09:56:43;22.20;99.90
8824;DHT22;4448;50.904;4.694;2023-06-22T09:59:09;22.20;99.90
8824;DHT22;4448;50.904;4.694;2023-06-22T10:01:35;22.20;99.90
8824;DHT22;4448;50.904;4.694;2023-06-22T10:04:02;22.10;99.90
8824;DHT22;4448;50.904;4.694;2023-06-22T10:06:28;22.10;99.90
8824;DHT22;4448;50.904;4.694;2023-06-22T10:08:53;22.10;99.90
8824;DHT22;4448;50.904;4.694;2023-06-22T10:11:19;22.00;99.90
8824;DHT22;4448;50.904;4.694;2023-06-22T10:13:45;22.00;99.90
8824;DHT22;4448;50.904;4.694;2023-06-22T10:16:10;22.00;99.90
8824;DHT22;4448;50.904;4.694;2023-06-22T10:18:36;22.00;99.90
8824;DHT22;4448;50.904;4.694;2023-06-22T10:21:02;21.90;99.90
8824;DHT22;4448;50.904;4.694;2023-06-22T10:23:27;21.90;99.90
8824;DHT22;4448;50.904;4.694;2023-06-22T10:25:53;21.90;99.90
8824;DHT22;4448;50.904;4.694;2023-06-22T10:28:19;21.90;99.90
8824;DHT22;4448;50.904;4.694;2023-06-22T10:30:44;21.90;99.90
8824;DHT22;4448;50.904;4.694;2023-06-22T10:33:11;21.90;99.90
8824;DHT22;4448;50.904;4.694;2023-06-22T10:35:37;21.80;99.90
8824;DHT22;4448;50.904;4.694;2023-06-22T10:38:05;21.80;99.90
8824;DHT22;4448;50.904;4.694;2023-06-22T10:40:31;21.80;99.90
8824;DHT22;4448;50.904;4.694;2023-06-22T10:42:57;21.80;99.90
8824;DHT22;4448;50.904;4.694;2023-06-22T10:45:23;21.80;99.90
8824;DHT22;4448;50.904;4.694;2023-06-22T10:47:48;21.80;99.90
8824;DHT22;4448;50.904;4.694;2023-06-22T10:50:14;21.70;99.90
8824;DHT22;4448;50.904;4.694;2023-06-22T10:52:40;21.80;99.90
8824;DHT22;4448;50.904;4.694;2023-06-22T10:55:09;21.70;99.90
8824;DHT22;4448;50.904;4.694;2023-06-22T10:57:35;21.70;99.90
8824;DHT22;4448;50.904;4.694;2023-06-22T11:00:03;21.70;99.90
8824;DHT22;4448;50.904;4.694;2023-06-22T11:02:31;21.60;99.90
8824;DHT22;4448;50.904;4.694;2023-06-22T11:04:57;21.60;99.90
8824;DHT22;4448;50.904;4.694;2023-06-22T11:07:25;21.70;99.90
8824;DHT22;4448;50.904;4.694;2023-06-22T11:09:53;21.60;99.90
8824;DHT22;4448;50.904;4.694;2023-06-22T11:12:18;21.70;99.90
8824;DHT22;4448;50.904;4.694;2023-06-22T11:14:44;21.70;99.90
8824;DHT22;4448;50.904;4.694;2023-06-22T11:17:09;21.60;99.90
8824;DHT22;4448;50.904;4.694;2023-06-22T11:19:35;21.70;99.90
8824;DHT22;4448;50.904;4.694;2023-06-22T11:22:01;21.70;99.90
8824;DHT22;4448;50.904;4.694;2023-06-22T11:24:27;21.70;99.90
8824;DHT22;4448;50.904;4.694;2023-06-22T11:26:53;21.80;99.90
8824;DHT22;4448;50.904;4.694;2023-06-22T11:29:18;21.70;99.90
8824;DHT22;4448;50.904;4.694;2023-06-22T11:31:44;21.70;99.90
8824;DHT22;4448;50.904;4.694;2023-06-22T11:34:10;21.80;99.90
8824;DHT22;4448;50.904;4.694;2023-06-22T11:36:36;21.80;99.90
8824;DHT22;4448;50.904;4.694;2023-06-22T11:39:02;21.60;99.90
8824;DHT22;4448;50.904;4.694;2023-06-22T11:41:28;21.70;99.90
8824;DHT22;4448;50.904;4.694;2023-06-22T11:43:53;21.80;99.90
8824;DHT22;4448;50.904;4.694;2023-06-22T11:46:19;21.70;99.90
8824;DHT22;4448;50.904;4.694;2023-06-22T11:48:45;21.70;99.90
8824;DHT22;4448;50.904;4.694;2023-06-22T11:51:11;21.70;99.90
8824;DHT22;4448;50.904;4.694;2023-06-22T11:53:36;21.70;99.90
8824;DHT22;4448;50.904;4.694;2023-06-22T11:56:02;21.60;99.90
8824;DHT22;4448;50.904;4.694;2023-06-22T11:58:28;21.70;99.90
8824;DHT22;4448;50.904;4.694;2023-06-22T12:00:53;21.60;99.90
8824;DHT22;4448;50.904;4.694;2023-06-22T12:03:19;21.70;99.90
8824;DHT22;4448;50.904;4.694;2023-06-22T12:05:46;21.70;99.90
8824;DHT22;4448;50.904;4.694;2023-06-22T12:08:12;21.70;99.90
8824;DHT22;4448;50.904;4.694;2023-06-22T12:10:39;21.70;99.90
8824;DHT22;4448;50.904;4.694;2023-06-22T12:13:05;21.60;99.90
8824;DHT22;4448;50.904;4.694;2023-06-22T12:15:31;21.60;99.90
8824;DHT22;4448;50.904;4.694;2023-06-22T12:17:56;21.60;99.90
8824;DHT22;4448;50.904;4.694;2023-06-22T12:20:22;21.60;99.90
8824;DHT22;4448;50.904;4.694;2023-06-22T12:22:47;21.60;99.90
8824;DHT22;4448;50.904;4.694;2023-06-22T12:25:15;21.60;99.90
8824;DHT22;4448;50.904;4.694;2023-06-22T12:27:40;21.50;99.90
8824;DHT22;4448;50.904;4.694;2023-06-22T12:30:06;21.70;99.90
8824;DHT22;4448;50.904;4.694;2023-06-22T12:32:32;21.60;99.90
8824;DHT22;4448;50.904;4.694;2023-06-22T12:34:57;21.50;99.90
8824;DHT22;4448;50.904;4.694;2023-06-22T12:37:23;21.60;99.90
8824;DHT22;4448;50.904;4.694;2023-06-22T12:39:49;21.50;99.90
8824;DHT22;4448;50.904;4.694;2023-06-22T12:42:15;21.50;99.90
8824;DHT22;4448;50.904;4.694;2023-06-22T12:44:41;21.50;99.90
8824;DHT22;4448;50.904;4.694;2023-06-22T12:47:07;21.40;99.90
8824;DHT22;4448;50.904;4.694;2023-06-22T12:49:36;21.40;99.90
8824;DHT22;4448;50.904;4.694;2023-06-22T12:52:08;21.40;99.90
8824;DHT22;4448;50.904;4.694;2023-06-22T12:54:34;21.40;99.90
8824;DHT22;4448;50.904;4.694;2023-06-22T12:56:59;21.50;99.90
8824;DHT22;4448;50.904;4.694;2023-06-22T12:59:25;21.40;99.90
8824;DHT22;4448;50.904;4.694;2023-06-22T13:01:51;21.40;99.90
8824;DHT22;4448;50.904;4.694;2023-06-22T13:04:16;21.40;99.90
8824;DHT22;4448;50.904;4.694;2023-06-22T13:06:47;21.40;99.90
8824;DHT22;4448;50.904;4.694;2023-06-22T13:09:14;21.30;99.90
8824;DHT22;4448;50.904;4.694;2023-06-22T13:11:40;21.40;99.90
8824;DHT22;4448;50.904;4.694;2023-06-22T13:14:06;21.30;99.90
8824;DHT22;4448;50.904;4.694;2023-06-22T13:16:31;21.30;99.90
8824;DHT22;4448;50.904;4.694;2023-06-22T13:18:57;21.30;99.90
8824;DHT22;4448;50.904;4.694;2023-06-22T13:21:23;21.30;99.90
8824;DHT22;4448;50.904;4.694;2023-06-22T13:23:48;21.40;99.90
8824;DHT22;4448;50.904;4.694;2023-06-22T13:26:14;21.30;99.90
8824;DHT22;4448;50.904;4.694;2023-06-22T13:28:39;21.40;99.90
8824;DHT22;4448;50.904;4.694;2023-06-22T13:31:05;21.30;99.90
8824;DHT22;4448;50.904;4.694;2023-06-22T13:33:31;21.30;99.90
8824;DHT22;4448;50.904;4.694;2023-06-22T13:35:56;21.30;99.90
8824;DHT22;4448;50.904;4.694;2023-06-22T13:38:22;21.30;99.90
8824;DHT22;4448;50.904;4.694;2023-06-22T13:40:48;21.30;99.90
8824;DHT22;4448;50.904;4.694;2023-06-22T13:43:14;21.40;99.90
8824;DHT22;4448;50.904;4.694;2023-06-22T13:45:41;21.30;99.90
8824;DHT22;4448;50.904;4.694;2023-06-22T13:48:07;21.20;99.90
8824;DHT22;4448;50.904;4.694;2023-06-22T13:50:33;21.20;99.90
8824;DHT22;4448;50.904;4.694;2023-06-22T13:52:58;21.40;99.90
8824;DHT22;4448;50.904;4.694;2023-06-22T13:55:24;21.20;99.90
8824;DHT22;4448;50.904;4.694;2023-06-22T13:57:50;21.20;99.90
8824;DHT22;4448;50.904;4.694;2023-06-22T14:00:17;21.20;99.90
8824;DHT22;4448;50.904;4.694;2023-06-22T14:02:43;21.10;99.90
8824;DHT22;4448;50.904;4.694;2023-06-22T14:05:09;21.20;99.90
8824;DHT22;4448;50.904;4.694;2023-06-22T14:07:34;21.20;99.90
8824;DHT22;4448;50.904;4.694;2023-06-22T14:10:00;21.20;99.90
8824;DHT22;4448;50.904;4.694;2023-06-22T14:12:26;21.20;99.90
8824;DHT22;4448;50.904;4.694;2023-06-22T14:14:52;20.90;99.90
8824;DHT22;4448;50.904;4.694;2023-06-22T14:17:18;21.20;99.90
8824;DHT22;4448;50.904;4.694;2023-06-22T14:19:49;21.20;99.90
8824;DHT22;4448;50.904;4.694;2023-06-22T14:22:15;21.20;99.90
8824;DHT22;4448;50.904;4.694;2023-06-22T14:24:40;21.20;99.90
8824;DHT22;4448;50.904;4.694;2023-06-22T14:27:06;21.20;99.90
8824;DHT22;4448;50.904;4.694;2023-06-22T14:29:34;21.20;99.90
8824;DHT22;4448;50.904;4.694;2023-06-22T14:32:00;21.10;99.90
8824;DHT22;4448;50.904;4.694;2023-06-22T14:34:25;21.10;99.90
8824;DHT22;4448;50.904;4.694;2023-06-22T14:36:51;21.10;99.90
8824;DHT22;4448;50.904;4.694;2023-06-22T14:39:17;21.10;99.90
8824;DHT22;4448;50.904;4.694;2023-06-22T14:41:42;21.10;99.90
8824;DHT22;4448;50.904;4.694;2023-06-22T14:44:08;21.10;99.90
8824;DHT22;4448;50.904;4.694;2023-06-22T14:46:34;21.10;99.90
8824;DHT22;4448;50.904;4.694;2023-06-22T14:49:00;21.10;99.90
8824;DHT22;4448;50.904;4.694;2023-06-22T14:51:26;21.00;99.90
8824;DHT22;4448;50.904;4.694;2023-06-22T14:53:52;21.10;99.90
8824;DHT22;4448;50.904;4.694;2023-06-22T14:56:17;21.10;99.90
8824;DHT22;4448;50.904;4.694;2023-06-22T14:58:43;21.00;99.90
8824;DHT22;4448;50.904;4.694;2023-06-22T15:01:11;21.10;99.90
8824;DHT22;4448;50.904;4.694;2023-06-22T15:03:37;21.10;99.90
8824;DHT22;4448;50.904;4.694;2023-06-22T15:06:03;21.00;99.90
8824;DHT22;4448;50.904;4.694;2023-06-22T15:08:29;21.10;99.90
8824;DHT22;4448;50.904;4.694;2023-06-22T15:10:57;21.10;99.90
8824;DHT22;4448;50.904;4.694;2023-06-22T15:13:23;21.10;99.90
8824;DHT22;4448;50.904;4.694;2023-06-22T15:15:51;21.00;99.90
8824;DHT22;4448;50.904;4.694;2023-06-22T15:18:17;21.20;99.90
8824;DHT22;4448;50.904;4.694;2023-06-22T15:20:43;21.00;99.90
8824;DHT22;4448;50.904;4.694;2023-06-22T15:23:12;21.20;99.90
8824;DHT22;4448;50.904;4.694;2023-06-22T15:25:38;21.20;99.90
8824;DHT22;4448;50.904;4.694;2023-06-22T15:28:04;21.20;99.90
8824;DHT22;4448;50.904;4.694;2023-06-22T15:30:29;21.20;99.90
8824;DHT22;4448;50.904;4.694;2023-06-22T15:32:56;21.60;99.90
8824;DHT22;4448;50.904;4.694;2023-06-22T15:35:22;21.20;99.90
8824;DHT22;4448;50.904;4.694;2023-06-22T15:37:48;21.20;99.90
8824;DHT22;4448;50.904;4.694;2023-06-22T15:40:13;21.20;99.90
8824;DHT22;4448;50.904;4.694;2023-06-22T15:42:39;21.20;99.90
8824;DHT22;4448;50.904;4.694;2023-06-22T15:45:05;21.20;99.90
8824;DHT22;4448;50.904;4.694;2023-06-22T15:47:31;21.30;99.90
8824;DHT22;4448;50.904;4.694;2023-06-22T15:49:57;21.20;99.90
8824;DHT22;4448;50.904;4.694;2023-06-22T15:52:22;21.30;99.90
8824;DHT22;4448;50.904;4.694;2023-06-22T15:54:48;21.20;99.90
8824;DHT22;4448;50.904;4.694;2023-06-22T15:57:16;21.20;99.90
8824;DHT22;4448;50.904;4.694;2023-06-22T15:59:42;20.70;99.90
8824;DHT22;4448;50.904;4.694;2023-06-22T16:02:09;21.20;99.90